Time;durP1;ratioP1;P1;durP2;ratioP2;P2;SDS_P1;SDS_P2;PMS_P1;PMS_P2;Temp;Humidity;BMP_temperature;BMP_pressure;BME280_temperature;BME280_humidity;BME280_pressure;Samples;Min_cycle;Max_cycle;Signal;HPM_P1;HPM_P2
2023/10/18 00:00:28;;;;;;;1.83;1.10;;;17.20;99.90;;;16.67;100.00;99281.31;4152566;28;20036;-73
2023/10/18 00:02:29;;;;;;;4.82;1.10;;;17.20;99.90;;;16.66;100.00;99269.88;4152694;28;20435;-73
2023/10/18 00:04:30;;;;;;;3.88;1.33;;;17.20;99.90;;;16.70;100.00;99264.88;4135376;28;20073;-73
2023/10/18 00:06:32;;;;;;;3.33;1.15;;;17.30;99.90;;;16.69;100.00;99265.94;4151318;28;20034;-73
2023/10/18 00:08:33;;;;;;;2.72;1.00;;;17.30;99.90;;;16.72;100.00;99273.47;4152675;28;20057;-73
2023/10/18 00:10:34;;;;;;;3.15;1.20;;;17.30;99.90;;;16.76;100.00;99278.09;4156257;28;20025;-73
2023/10/18 00:12:35;;;;;;;4.15;1.17;;;17.30;99.90;;;16.73;100.00;99264.44;4168697;28;20523;-73
2023/10/18 00:14:36;;;;;;;3.50;1.17;;;17.30;99.90;;;16.70;100.00;99265.69;4154605;28;20076;-73
2023/10/18 00:16:36;;;;;;;2.45;1.00;;;17.30;99.90;;;16.66;100.00;99274.41;4152444;28;20029;-73
2023/10/18 00:18:37;;;;;;;3.10;1.10;;;17.20;99.90;;;16.63;100.00;99280.19;4155529;28;20022;-73
2023/10/18 00:20:38;;;;;;;3.45;1.55;;;17.20;99.90;;;16.58;100.00;99284.34;4158447;28;20041;-73
2023/10/18 00:22:40;;;;;;;2.20;1.27;;;17.20;99.90;;;16.54;100.00;99279.72;4152384;28;20030;-73
2023/10/18 00:24:41;;;;;;;4.13;1.20;;;17.10;99.90;;;16.51;100.00;99272.16;4152573;28;20060;-73
2023/10/18 00:26:42;;;;;;;2.15;1.20;;;17.10;99.90;;;16.44;100.00;99260.78;4152487;28;20038;-73
2023/10/18 00:28:43;;;;;;;1.85;1.00;;;17.10;99.90;;;16.42;100.00;99257.56;4152437;28;20026;-73
2023/10/18 00:30:44;;;;;;;2.72;1.30;;;17.00;99.90;;;16.38;100.00;99265.19;4134796;28;20034;-73
2023/10/18 00:32:45;;;;;;;2.65;1.20;;;17.00;99.90;;;16.36;100.00;99264.63;4134864;28;20023;-73
2023/10/18 00:34:46;;;;;;;2.58;1.08;;;17.00;99.90;;;16.37;100.00;99260.91;4135001;28;20030;-73
2023/10/18 00:36:47;;;;;;;3.15;1.40;;;17.00;99.90;;;16.35;100.00;99257.66;4151228;28;20029;-73
2023/10/18 00:38:48;;;;;;;2.50;1.27;;;16.90;99.90;;;16.31;100.00;99251.16;4152258;28;20117;-73
2023/10/18 00:40:51;;;;;;;3.28;1.20;;;16.90;99.90;;;16.28;100.00;99235.66;4152508;28;20073;-73
2023/10/18 00:42:52;;;;;;;1.60;1.20;;;16.90;99.90;;;16.22;100.00;99231.25;4152433;28;20072;-73
2023/10/18 00:45:02;;;;;;;3.08;1.35;;;16.80;99.90;;;16.15;100.00;99257.16;4152401;28;20497;-73
2023/10/18 00:47:03;;;;;;;3.58;1.40;;;16.80;99.90;;;16.13;100.00;99237.16;4135561;28;20046;-73
2023/10/18 00:49:13;;;;;;;2.83;1.50;;;16.70;99.90;;;16.11;100.00;99250.66;4134934;28;20026;-73
2023/10/18 00:51:16;;;;;;;2.63;1.48;;;16.70;99.90;;;16.11;100.00;99249.84;4152492;28;20033;-73
2023/10/18 00:53:20;;;;;;;3.70;2.15;;;16.70;99.90;;;16.08;100.00;99242.34;4152409;28;20029;-73
2023/10/18 00:55:21;;;;;;;2.45;1.77;;;16.70;99.90;;;16.07;100.00;99232.75;4145557;28;20038;-73
2023/10/18 00:57:28;;;;;;;4.03;1.60;;;16.70;99.90;;;16.02;100.00;99231.56;4168761;28;20045;-73
2023/10/18 00:59:30;;;;;;;2.00;1.30;;;16.60;99.90;;;16.01;100.00;99221.16;4150852;28;20136;-73
2023/10/18 01:01:35;;;;;;;2.30;1.40;;;16.60;99.90;;;15.97;100.00;99215.50;4168232;28;20115;-73
2023/10/18 01:03:50;;;;;;;3.63;1.63;;;16.60;99.90;;;15.96;100.00;99221.03;4168660;28;20048;-73
2023/10/18 01:06:08;;;;;;;3.33;1.67;;;16.60;99.90;;;15.92;100.00;99225.97;4161421;28;20038;-73
2023/10/18 01:08:10;;;;;;;3.90;1.70;;;16.50;99.90;;;15.90;100.00;99216.63;4155244;28;20037;-73
2023/10/18 01:10:12;;;;;;;3.60;1.52;;;16.50;99.90;;;15.87;100.00;99209.91;4159758;28;20052;-73
2023/10/18 01:12:14;;;;;;;4.50;2.28;;;16.50;99.90;;;15.85;100.00;99205.84;4171439;28;20432;-73
2023/10/18 01:14:18;;;;;;;3.70;1.90;;;16.40;99.90;;;15.80;100.00;99205.75;4160232;28;20037;-73
2023/10/18 01:16:22;;;;;;;2.33;1.77;;;16.40;99.90;;;15.75;100.00;99197.59;4155312;28;20481;-73
2023/10/18 01:18:23;;;;;;;5.28;2.08;;;16.40;99.90;;;15.75;100.00;99193.09;4155840;28;20030;-73
2023/10/18 01:22:37;;;;;;;3.63;1.40;;;16.30;99.90;;;15.68;100.00;99189.72;4155290;28;20117;-73
2023/10/18 01:24:39;;;;;;;3.97;1.55;;;16.30;99.90;;;15.67;100.00;99184.66;4155971;28;20097;-73
2023/10/18 01:26:40;;;;;;;1.90;1.20;;;16.30;99.90;;;15.66;100.00;99189.16;4164992;28;20117;-73
2023/10/18 01:28:42;;;;;;;3.60;1.52;;;16.30;99.90;;;15.62;100.00;99187.19;4155104;28;20489;-73
2023/10/18 01:30:43;;;;;;;4.50;1.52;;;16.20;99.90;;;15.58;100.00;99183.34;4137489;28;20026;-73
2023/10/18 01:32:44;;;;;;;3.83;1.48;;;16.20;99.90;;;15.56;100.00;99188.09;4154683;28;20405;-73
2023/10/18 01:34:44;;;;;;;2.85;1.60;;;16.10;99.90;;;15.53;100.00;99180.56;4155123;28;20026;-73
2023/10/18 01:36:46;;;;;;;3.28;1.63;;;16.10;99.90;;;15.52;100.00;99185.06;4155020;28;20068;-73
2023/10/18 01:38:52;;;;;;;2.50;1.40;;;16.10;99.90;;;15.49;100.00;99183.66;4155001;28;20026;-73
2023/10/18 01:40:55;;;;;;;3.05;1.45;;;16.10;99.90;;;15.46;100.00;99173.47;4155097;28;20061;-73
2023/10/18 01:42:56;;;;;;;4.00;1.67;;;16.10;99.90;;;15.45;100.00;99171.00;4155086;28;20022;-73
2023/10/18 01:44:57;;;;;;;3.08;1.45;;;16.00;99.90;;;15.44;100.00;99180.81;4154872;28;20156;-73
2023/10/18 01:47:06;;;;;;;3.80;1.83;;;16.10;99.90;;;15.42;100.00;99177.59;4154672;28;20034;-73
2023/10/18 01:49:07;;;;;;;5.10;1.65;;;16.00;99.90;;;15.39;100.00;99162.09;4154801;28;20026;-73
2023/10/18 01:51:09;;;;;;;2.80;1.40;;;16.00;99.90;;;15.36;100.00;99167.88;4137201;28;20061;-73
2023/10/18 01:53:16;;;;;;;2.72;1.25;;;16.00;99.90;;;15.38;100.00;99167.66;4154817;28;20032;-73
2023/10/18 01:55:17;;;;;;;3.60;1.77;;;16.00;99.90;;;15.39;100.00;99162.09;4154593;28;20085;-73
2023/10/18 01:57:18;;;;;;;3.10;1.70;;;16.00;99.90;;;15.38;100.00;99154.38;4154815;28;20025;-73
2023/10/18 01:59:19;;;;;;;2.20;1.40;;;16.00;99.90;;;15.40;100.00;99161.06;4154805;28;20080;-73
2023/10/18 02:01:21;;;;;;;3.65;1.98;;;16.00;99.90;;;15.39;100.00;99151.47;4154614;28;20034;-73
2023/10/18 02:03:22;;;;;;;5.70;2.00;;;16.00;99.90;;;15.39;100.00;99156.78;4154610;28;20029;-73
2023/10/18 02:05:26;;;;;;;3.22;1.40;;;16.00;99.90;;;15.39;100.00;99153.31;4137054;28;20521;-73
2023/10/18 02:07:27;;;;;;;3.33;1.77;;;16.00;99.90;;;15.36;100.00;99146.59;4159077;28;20030;-73
2023/10/18 02:09:36;;;;;;;4.90;1.92;;;16.00;99.90;;;15.37;100.00;99153.56;4153039;28;20033;-73
2023/10/18 02:11:36;;;;;;;3.25;1.80;;;15.90;99.90;;;15.36;100.00;99146.59;4170189;28;20519;-73
2023/10/18 02:13:39;;;;;;;2.15;1.40;;;16.00;99.90;;;15.36;100.00;99143.94;4152384;28;20026;-73
2023/10/18 02:15:42;;;;;;;4.57;1.73;;;16.00;99.90;;;15.38;100.00;99136.56;4151928;28;20029;-73
2023/10/18 02:17:51;;;;;;;2.90;1.52;;;15.90;99.90;;;15.36;100.00;99125.34;4169631;28;20021;-73
2023/10/18 02:19:52;;;;;;;5.38;1.60;;;16.00;99.90;;;15.39;100.00;99124.91;4153083;28;20034;-73
2023/10/18 02:22:06;;;;;;;4.38;1.92;;;16.00;99.90;;;15.39;100.00;99114.28;4169818;28;20022;-73
2023/10/18 02:24:11;;;;;;;5.82;2.20;;;16.00;99.90;;;15.38;100.00;99103.88;4156832;28;20026;-73
2023/10/18 02:26:30;;;;;;;2.95;2.15;;;15.90;99.90;;;15.39;100.00;99106.31;4153442;28;20082;-73
2023/10/18 02:28:32;;;;;;;2.80;1.73;;;15.90;99.90;;;15.38;100.00;99093.25;4153270;28;20037;-73
2023/10/18 02:30:34;;;;;;;2.63;1.80;;;16.00;99.90;;;15.40;100.00;99073.38;4153272;28;20148;-74
2023/10/18 02:32:35;;;;;;;4.38;1.63;;;16.00;99.90;;;15.41;100.00;99060.91;4153056;28;20029;-73
2023/10/18 02:34:38;;;;;;;4.93;2.30;;;16.00;99.90;;;15.43;100.00;99042.91;4153419;28;20018;-73
2023/10/18 02:36:39;;;;;;;4.03;2.30;;;16.00;99.90;;;15.46;100.00;99039.78;4153185;28;20033;-73
2023/10/18 02:38:41;;;;;;;3.88;1.83;;;16.00;99.90;;;15.48;100.00;99038.53;4153126;28;20780;-73
2023/10/18 02:40:43;;;;;;;3.20;1.90;;;16.10;99.90;;;15.50;100.00;99015.19;4135774;28;20505;-73
2023/10/18 02:42:44;;;;;;;5.22;1.77;;;16.10;99.90;;;15.53;100.00;99007.81;4152038;28;20041;-73
2023/10/18 02:44:45;;;;;;;4.50;2.00;;;16.10;99.90;;;15.52;100.00;99008.84;4153253;28;20026;-73
2023/10/18 02:46:48;;;;;;;9.02;2.15;;;16.10;99.90;;;15.54;100.00;99014.72;4152901;28;20137;-73
2023/10/18 02:48:57;;;;;;;3.37;1.87;;;16.10;99.90;;;15.55;100.00;99009.19;4152841;28;20029;-73
2023/10/18 02:50:57;;;;;;;3.85;2.60;;;16.10;99.90;;;15.60;100.00;99011.97;4148243;28;20268;-73
2023/10/18 02:53:00;;;;;;;2.70;1.73;;;16.10;99.90;;;15.61;100.00;99002.97;4169458;28;20509;-73
2023/10/18 02:55:02;;;;;;;3.78;2.03;;;16.20;99.90;;;15.62;100.00;98985.19;4169238;28;20026;-73
2023/10/18 02:57:05;;;;;;;2.92;2.50;;;16.20;99.90;;;15.63;100.00;98981.47;4169456;28;20489;-73
2023/10/18 02:59:13;;;;;;;3.78;2.35;;;16.20;99.90;;;15.65;100.00;98979.41;4169158;28;20021;-73
2023/10/18 03:01:14;;;;;;;6.57;2.45;;;16.20;99.90;;;15.63;100.00;98970.81;4158172;28;20040;-73
2023/10/18 03:03:15;;;;;;;3.55;2.17;;;16.20;99.90;;;15.61;100.00;98970.25;4152552;28;20026;-73
2023/10/18 03:05:20;;;;;;;2.92;2.08;;;16.20;99.90;;;15.65;100.00;98963.44;4152876;28;20057;-73
2023/10/18 03:07:22;;;;;;;5.78;2.70;;;16.20;99.90;;;15.65;100.00;98955.47;4152856;28;20022;-73
2023/10/18 03:11:27;;;;;;;6.88;2.05;;;16.20;99.90;;;15.66;100.00;98946.44;4122776;28;1334040;-73
2023/10/18 03:13:28;;;;;;;4.78;2.20;;;16.30;99.90;;;15.63;100.00;98942.41;4164770;28;20034;-73
2023/10/18 03:15:29;;;;;;;6.90;2.90;;;16.20;99.90;;;15.68;100.00;98941.72;4153456;28;20030;-73
2023/10/18 03:17:35;;;;;;;4.63;2.30;;;16.30;99.90;;;15.66;100.00;98943.78;4153159;28;20041;-73
2023/10/18 03:19:37;;;;;;;4.15;2.28;;;16.30;99.90;;;15.67;100.00;98940.09;4162857;28;20034;-73
2023/10/18 03:21:43;;;;;;;3.28;2.00;;;16.30;99.90;;;15.71;100.00;98935.94;4164257;28;20053;-73
2023/10/18 03:23:44;;;;;;;7.68;2.80;;;16.30;99.90;;;15.72;100.00;98942.84;4153414;28;20452;-73
2023/10/18 03:25:45;;;;;;;4.55;2.67;;;16.30;99.90;;;15.71;100.00;98941.25;4153250;28;20056;-73
2023/10/18 03:27:57;;;;;;;6.47;2.40;;;16.30;99.90;;;15.73;100.00;98931.19;4152373;28;20041;-73
2023/10/18 03:29:58;;;;;;;4.45;2.47;;;16.30;99.90;;;15.74;100.00;98930.16;4157348;28;20024;-73
2023/10/18 03:32:00;;;;;;;3.42;2.00;;;16.40;99.90;;;15.75;100.00;98918.47;4158563;28;20030;-73
2023/10/18 03:34:03;;;;;;;5.97;2.80;;;16.40;99.90;;;15.78;100.00;98910.03;4153057;28;20482;-73
2023/10/18 03:36:17;;;;;;;5.80;3.20;;;16.40;99.90;;;15.79;100.00;98903.66;4153334;28;20037;-73
2023/10/18 03:38:18;;;;;;;4.83;2.40;;;16.40;99.90;;;15.81;100.00;98905.06;4153147;28;20401;-73
2023/10/18 03:40:26;;;;;;;2.70;1.98;;;16.40;99.90;;;15.83;100.00;98904.84;4142152;28;20034;-73
2023/10/18 03:42:33;;;;;;;3.03;2.30;;;16.40;99.90;;;15.81;100.00;98893.59;4153127;28;20077;-73
2023/10/18 03:44:34;;;;;;;4.25;1.90;;;16.40;99.90;;;15.81;100.00;98888.28;4153064;28;20485;-73
2023/10/18 03:46:39;;;;;;;7.03;2.33;;;16.40;99.90;;;15.83;100.00;98894.97;4135431;28;20042;-73
2023/10/18 03:48:40;;;;;;;4.25;2.08;;;16.40;99.90;;;15.87;100.00;98903.31;4135885;28;20109;-73
2023/10/18 03:50:41;;;;;;;6.78;3.22;;;16.40;99.90;;;15.87;100.00;98892.66;4157584;28;20029;-73
2023/10/18 03:52:45;;;;;;;6.82;2.35;;;16.40;99.90;;;15.93;100.00;98899.69;4153047;28;20635;-73
2023/10/18 03:56:51;;;;;;;5.32;2.42;;;16.50;99.90;;;15.97;100.00;98879.59;4152907;28;20022;-73
2023/10/18 03:59:09;;;;;;;3.45;2.10;;;16.50;99.90;;;16.04;100.00;98888.22;4152856;28;20033;-74
2023/10/18 04:01:12;;;;;;;4.43;2.25;;;16.60;99.90;;;16.02;100.00;98885.00;4154770;28;20026;-73
2023/10/18 04:03:15;;;;;;;4.95;2.17;;;16.60;99.90;;;16.00;100.00;98882.59;4134905;28;20046;-73
2023/10/18 04:05:30;;;;;;;4.53;3.20;;;16.60;99.90;;;16.01;100.00;98888.69;4135678;28;20026;-73
2023/10/18 04:07:31;;;;;;;6.30;2.70;;;16.60;99.90;;;16.07;100.00;98871.78;4137141;28;20030;-73
2023/10/18 04:09:31;;;;;;;3.85;2.40;;;16.60;99.90;;;16.11;100.00;98866.81;4152658;28;20038;-74
2023/10/18 04:11:33;;;;;;;5.28;2.50;;;16.70;99.90;;;16.12;100.00;98871.91;4152731;28;20045;-74
2023/10/18 04:13:36;;;;;;;5.85;3.00;;;16.70;99.90;;;16.17;100.00;98871.19;4158559;28;20026;-73
2023/10/18 04:15:45;;;;;;;4.22;2.53;;;16.70;99.90;;;16.18;100.00;98862.97;4169065;28;20067;-73
2023/10/18 04:17:49;;;;;;;5.90;2.95;;;16.80;99.90;;;16.24;100.00;98867.34;4152223;28;20025;-73
2023/10/18 04:19:50;;;;;;;5.15;2.83;;;16.80;99.90;;;16.28;100.00;98854.34;4166843;28;20096;-73
2023/10/18 04:21:53;;;;;;;5.60;3.17;;;16.80;99.90;;;16.30;100.00;98847.78;4167684;28;20032;-73
2023/10/18 04:23:56;;;;;;;4.47;2.63;;;16.90;99.90;;;16.34;100.00;98842.75;4161933;28;20017;-73
2023/10/18 04:25:58;;;;;;;4.78;2.78;;;16.90;99.90;;;16.35;100.00;98842.53;4154291;28;20034;-73
2023/10/18 04:28:00;;;;;;;4.82;2.50;;;16.90;99.90;;;16.42;100.00;98843.19;4134962;28;20057;-73
2023/10/18 04:30:01;;;;;;;3.22;2.47;;;16.90;99.90;;;16.53;100.00;98842.31;4155853;28;20036;-73
2023/10/18 04:32:03;;;;;;;5.13;2.25;;;17.00;99.90;;;16.54;100.00;98836.00;4139962;28;20026;-73
2023/10/18 04:34:11;;;;;;;4.70;2.17;;;17.10;99.90;;;16.57;100.00;98834.69;4152416;28;20514;-73
2023/10/18 04:36:14;;;;;;;5.60;2.17;;;17.10;99.90;;;16.63;100.00;98819.59;4152410;28;20022;-73
2023/10/18 04:41:06;;;;;;;5.75;2.50;;;17.20;99.90;;;16.65;100.00;98810.31;4153672;28;20096;-73
2023/10/18 04:43:07;;;;;;;4.22;2.15;;;17.20;99.90;;;16.72;100.00;98810.16;4152418;28;20428;-73
2023/10/18 04:45:16;;;;;;;7.15;2.30;;;17.30;99.90;;;16.69;100.00;98806.13;4152349;28;20041;-73
2023/10/18 04:47:18;;;;;;;2.70;2.17;;;17.30;99.90;;;16.69;100.00;98806.13;4152233;28;20033;-74
2023/10/18 04:49:37;;;;;;;3.40;2.30;;;17.20;99.90;;;16.71;100.00;98803.22;4152290;28;20022;-74
2023/10/18 04:53:43;;;;;;;5.85;2.22;;;17.30;99.90;;;16.75;100.00;98799.03;4151720;28;20053;-73
2023/10/18 04:55:46;;;;;;;3.63;2.30;;;17.30;99.90;;;16.78;100.00;98793.22;4168668;28;20026;-74
2023/10/18 04:57:47;;;;;;;4.65;2.60;;;17.30;99.90;;;16.77;100.00;98787.09;4168566;28;20044;-73
2023/10/18 04:59:59;;;;;;;4.68;2.25;;;17.30;99.90;;;16.78;100.00;98787.91;4168149;28;20405;-73
2023/10/18 05:02:00;;;;;;;4.05;2.00;;;17.30;99.90;;;16.74;100.00;98781.44;4152049;28;20033;-73
2023/10/18 05:04:24;;;;;;;3.13;2.03;;;17.30;99.90;;;16.73;100.00;98782.47;4152189;28;20034;-73
2023/10/18 05:06:28;;;;;;;5.22;2.30;;;17.30;99.90;;;16.76;100.00;98772.16;4137847;28;20041;-73
2023/10/18 05:08:30;;;;;;;4.28;2.22;;;17.30;99.90;;;16.81;100.00;98776.75;4152247;28;20030;-73
2023/10/18 05:10:31;;;;;;;4.20;2.35;;;17.40;99.90;;;16.82;100.00;98759.72;4159219;28;20026;-73
2023/10/18 05:12:42;;;;;;;3.67;2.50;;;17.40;99.90;;;16.80;100.00;98759.97;4156679;28;20042;-74
2023/10/18 05:16:59;;;;;;;4.47;2.50;;;17.40;99.90;;;16.76;100.00;98752.69;4152807;28;20045;-73
2023/10/18 05:19:00;;;;;;;5.97;2.78;;;17.40;99.90;;;16.75;100.00;98751.09;4168328;28;20052;-73
2023/10/18 05:21:07;;;;;;;3.83;2.30;;;17.30;99.90;;;16.72;100.00;98739.09;4165013;28;20022;-73
2023/10/18 05:23:08;;;;;;;3.88;2.00;;;17.30;99.90;;;16.74;100.00;98741.50;4151886;28;20037;-73
2023/10/18 05:27:19;;;;;;;7.03;2.35;;;17.30;99.90;;;16.74;100.00;98734.31;4134602;28;20027;-73
2023/10/18 05:29:22;;;;;;;6.25;2.67;;;17.30;99.90;;;16.75;100.00;98727.97;4151630;28;20038;-74
2023/10/18 05:33:49;;;;;;;6.22;2.95;;;17.30;99.90;;;16.70;100.00;98708.41;4152009;28;20397;-74
2023/10/18 05:35:55;;;;;;;4.65;2.33;;;17.30;99.90;;;16.67;100.00;98708.91;4151845;28;20033;-74
2023/10/18 05:42:35;;;;;;;6.22;3.20;;;17.20;99.90;;;16.62;100.00;98692.88;4151798;28;20113;-73
2023/10/18 05:44:36;;;;;;;5.85;2.80;;;17.20;99.90;;;16.58;100.00;98689.88;4152049;28;20025;-74
2023/10/18 05:46:39;;;;;;;5.35;2.72;;;17.20;99.90;;;16.57;100.00;98683.78;4151684;28;20026;-73
2023/10/18 05:48:42;;;;;;;6.32;2.83;;;17.10;99.90;;;16.56;100.00;98674.16;4151790;28;20029;-73
2023/10/18 05:50:56;;;;;;;7.97;3.35;;;17.10;99.90;;;16.56;100.00;98676.03;4155356;28;20447;-74
2023/10/18 05:53:03;;;;;;;8.93;3.35;;;17.10;99.90;;;16.53;100.00;98669.31;4138867;28;20031;-73
2023/10/18 05:55:09;;;;;;;5.53;2.78;;;17.10;99.90;;;16.52;100.00;98674.84;4154636;28;20112;-73
2023/10/18 05:57:15;;;;;;;6.30;3.17;;;17.10;99.90;;;16.50;100.00;98659.16;4137899;28;20026;-73
2023/10/18 06:01:19;;;;;;;6.70;3.33;;;17.10;99.90;;;16.54;100.00;98659.50;4155540;28;20085;-73
2023/10/18 06:03:22;;;;;;;7.60;3.08;;;17.10;99.90;;;16.56;100.00;98647.56;4154442;28;20029;-73
2023/10/18 06:05:23;;;;;;;9.02;2.78;;;17.10;99.90;;;16.54;100.00;98644.34;4154567;28;20486;-73
2023/10/18 06:07:24;;;;;;;18.67;3.40;;;17.10;99.90;;;16.54;100.00;98641.69;4154442;28;20048;-73
2023/10/18 06:09:46;;;;;;;3.53;2.60;;;17.10;99.90;;;16.51;100.00;98639.47;4154412;28;20026;-73
2023/10/18 06:11:48;;;;;;;9.02;3.85;;;17.10;99.90;;;16.46;100.00;98628.75;4156034;28;20529;-73
2023/10/18 06:13:49;;;;;;;5.88;3.20;;;17.10;99.90;;;16.47;100.00;98622.38;4163587;28;20093;-73
2023/10/18 06:15:52;;;;;;;6.97;3.42;;;17.10;99.90;;;16.44;100.00;98627.38;4159444;28;20026;-73
2023/10/18 06:17:57;;;;;;;3.88;2.80;;;17.00;99.90;;;16.45;100.00;98619.16;4136929;28;20022;-73
2023/10/18 06:19:58;;;;;;;6.75;3.65;;;17.00;99.90;;;16.43;100.00;98610.59;4163398;28;20034;-73
2023/10/18 06:21:59;;;;;;;5.22;3.17;;;17.00;99.90;;;16.47;100.00;98605.59;4169708;28;20032;-73
2023/10/18 06:24:08;;;;;;;11.45;4.30;;;17.00;99.90;;;16.45;100.00;98608.53;4159234;28;20112;-73
2023/10/18 06:28:30;;;;;;;6.38;3.63;;;17.00;99.90;;;16.48;100.00;98605.38;4154091;28;20418;-73
2023/10/18 06:30:31;;;;;;;7.57;3.65;;;17.10;99.90;;;16.50;100.00;98600.59;4159780;28;20022;-73
2023/10/18 06:32:36;;;;;;;8.40;3.95;;;17.00;99.90;;;16.51;100.00;98594.22;4154607;28;20028;-73
2023/10/18 06:34:43;;;;;;;7.13;3.67;;;17.10;99.90;;;16.51;100.00;98583.59;4154305;28;20037;-73
2023/10/18 06:36:49;;;;;;;8.20;4.10;;;17.10;99.90;;;16.52;100.00;98587.03;4137238;28;20033;-73
2023/10/18 06:38:51;;;;;;;9.35;4.25;;;17.10;99.90;;;16.54;100.00;98579.66;4136854;28;20094;-73
2023/10/18 06:40:53;;;;;;;10.23;5.57;;;17.10;99.90;;;16.63;100.00;98566.72;4144895;28;20045;-73
2023/10/18 06:42:57;;;;;;;8.75;4.10;;;17.10;99.90;;;16.70;100.00;98562.00;4170559;28;20458;-73
2023/10/18 06:44:58;;;;;;;;;;;17.20;99.90;;;16.63;100.00;98561.38;4153463;28;20092;-73
2023/10/18 06:47:01;;;;;;;9.48;3.90;;;17.20;99.90;;;16.64;100.00;98555.81;4156435;28;19913;-73
2023/10/18 06:49:02;;;;;;;10.55;4.18;;;17.20;99.90;;;16.64;100.00;98547.81;4136631;28;20070;-73
2023/10/18 06:51:11;;;;;;;11.40;3.80;;;17.20;99.90;;;16.64;100.00;98547.00;4156689;28;20025;-74
2023/10/18 06:53:14;;;;;;;9.35;4.40;;;17.20;99.90;;;16.70;100.00;98533.50;4153844;28;20049;-74
2023/10/18 06:55:16;;;;;;;5.78;4.35;;;17.20;99.90;;;16.76;100.00;98531.72;4136313;28;20409;-74
2023/10/18 06:57:18;;;;;;;11.07;4.55;;;17.30;99.90;;;16.75;100.00;98538.09;4136537;28;20022;-74
2023/10/18 06:59:27;;;;;;;9.98;4.80;;;17.30;99.90;;;16.75;100.00;98514.97;4153609;28;20041;-74
2023/10/18 07:01:30;;;;;;;8.82;4.95;;;17.30;99.90;;;16.78;100.00;98516.31;4153697;28;20029;-74
2023/10/18 07:03:34;;;;;;;11.07;4.82;;;17.30;99.90;;;16.74;100.00;98517.84;4153668;28;20097;-74
2023/10/18 07:05:37;;;;;;;9.55;4.43;;;17.30;99.90;;;16.75;100.00;98517.63;4153627;28;20034;-74
2023/10/18 07:07:39;;;;;;;10.55;5.28;;;17.30;99.90;;;16.75;100.00;98511.47;4153562;28;20037;-74
2023/10/18 07:09:43;;;;;;;9.63;5.07;;;17.30;99.90;;;16.76;100.00;98507.75;4136122;28;20035;-74
2023/10/18 07:11:44;;;;;;;11.15;5.05;;;17.30;99.90;;;16.76;100.00;98497.09;4168325;28;20041;-74
2023/10/18 07:13:46;;;;;;;13.55;4.75;;;17.30;99.90;;;16.78;100.00;98487.84;4162694;28;20037;-74
2023/10/18 07:15:47;;;;;;;7.28;4.22;;;17.30;99.90;;;16.78;100.00;98481.69;4153563;28;20038;-74
2023/10/18 07:17:48;;;;;;;6.45;4.28;;;17.30;99.90;;;16.83;100.00;98487.88;4135631;28;20023;-74
2023/10/18 07:19:49;;;;;;;10.75;4.38;;;17.30;99.90;;;16.82;100.00;98485.44;4161651;28;20033;-74
2023/10/18 07:21:54;;;;;;;9.25;3.90;;;17.40;99.90;;;16.80;100.00;98475.06;4151575;28;20093;-74
2023/10/18 07:23:55;;;;;;;9.20;3.55;;;17.40;99.90;;;16.84;100.00;98483.34;4152656;28;20037;-74
2023/10/18 07:25:55;;;;;;;7.00;4.22;;;17.40;99.90;;;16.82;100.00;98480.94;4152034;28;20040;-74
2023/10/18 07:27:56;;;;;;;6.00;3.58;;;17.40;99.90;;;16.88;100.00;98484.44;4152219;28;20037;-73
2023/10/18 07:30:00;;;;;;;8.75;3.72;;;17.40;99.90;;;16.87;100.00;98475.69;4159355;28;20489;-73
2023/10/18 07:32:06;;;;;;;;;;;17.40;99.90;;;16.89;100.00;98464.75;4168570;28;20029;-73
2023/10/18 07:34:08;;;;;;;7.35;3.35;;;17.40;99.90;;;16.87;100.00;98473.00;4149785;28;19920;-73
2023/10/18 07:36:17;;;;;;;8.25;3.97;;;17.40;99.90;;;16.90;100.00;98469.03;4152841;28;20030;-74
2023/10/18 07:38:25;;;;;;;5.60;3.22;;;17.40;99.90;;;16.95;100.00;98474.41;4152543;28;20178;-73
2023/10/18 07:40:33;;;;;;;5.93;3.28;;;17.40;99.90;;;16.97;100.00;98474.94;4156439;28;20025;-73
2023/10/18 07:42:43;;;;;;;5.35;2.97;;;17.50;99.90;;;16.98;100.00;98468.56;4152449;28;20497;-73
2023/10/18 07:44:46;;;;;;;6.82;3.22;;;17.50;99.90;;;17.01;100.00;98457.41;4152533;28;20096;-73
2023/10/18 07:46:47;;;;;;;9.82;3.30;;;17.50;99.90;;;17.04;100.00;98470.22;4135045;28;20018;-73
2023/10/18 07:48:48;;;;;;;4.20;2.55;;;17.60;99.90;;;17.05;100.00;98466.50;4160627;28;20119;-73
2023/10/18 07:50:52;;;;;;;5.50;3.33;;;17.60;99.90;;;17.05;100.00;98453.19;4153379;28;20013;-73
2023/10/18 07:52:54;;;;;;;6.47;2.40;;;17.60;99.90;;;17.10;100.00;98463.88;4158140;28;20034;-73
2023/10/18 07:54:55;;;;;;;6.15;2.67;;;17.70;99.90;;;17.13;100.00;98450.88;4152254;28;20032;-73
2023/10/18 07:56:56;;;;;;;4.80;2.30;;;17.70;99.90;;;17.15;100.00;98456.75;4152480;28;20409;-73
2023/10/18 08:01:46;;;;;;;2.42;2.05;;;17.70;99.90;;;17.22;100.00;98459.19;4162567;28;20040;-73
2023/10/18 08:03:42;;;;;;;3.13;2.10;;;17.80;99.90;;;17.23;100.00;98450.16;4154300;28;20081;-73
2023/10/18 08:05:50;;;;;;;4.35;2.38;;;17.70;99.90;;;17.28;100.00;98450.19;4165999;28;20040;-74
2023/10/18 08:08:10;;;;;;;2.88;1.40;;;17.80;99.90;;;17.28;100.00;98442.19;4143901;28;20116;-74
2023/10/18 08:10:11;;;;;;;2.38;1.25;;;17.80;99.90;;;17.34;100.00;98440.38;4153950;28;20486;-73
2023/10/18 08:14:25;;;;;;;1.83;1.20;;;17.90;99.90;;;17.37;100.00;98435.34;4163773;28;20104;-74
2023/10/18 08:16:42;;;;;;;1.33;0.90;;;17.90;99.90;;;17.40;100.00;98426.81;4163351;28;20040;-73
2023/10/18 08:18:43;;;;;;;2.38;1.10;;;17.90;99.90;;;17.45;100.00;98428.72;4155591;28;20029;-74
2023/10/18 08:22:50;;;;;;;2.78;1.33;;;18.00;99.90;;;17.56;100.00;98427.78;4135898;28;20044;-74
2023/10/18 08:24:51;;;;;;;3.85;1.40;;;18.00;99.90;;;17.57;100.00;98419.50;4134832;28;20445;-74
2023/10/18 08:26:59;;;;;;;1.83;1.23;;;18.10;99.90;;;17.60;100.00;98408.31;4152243;28;20026;-74
2023/10/18 08:29:03;;;;;;;5.80;1.58;;;18.10;99.90;;;17.68;100.00;98418.50;4146827;28;20038;-74
2023/10/18 08:31:33;;;;;;;3.85;1.02;;;18.20;99.90;;;17.78;100.00;98416.94;4150572;28;20026;-74
2023/10/18 08:33:34;;;;;;;5.78;1.02;;;18.20;99.90;;;17.88;100.00;98411.66;4153306;28;20038;-74
2023/10/18 08:35:38;;;;;;;5.28;1.40;;;18.30;99.90;;;17.93;100.00;98409.03;4168244;28;20017;-74
2023/10/18 08:37:39;;;;;;;7.32;1.58;;;18.40;99.90;;;18.00;100.00;98417.59;4168322;28;20378;-74
2023/10/18 08:39:52;;;;;;;10.18;1.55;;;18.40;99.90;;;18.07;100.00;98408.28;4168007;28;20029;-74
2023/10/18 08:42:14;;;;;;;7.65;0.88;;;18.50;99.90;;;18.08;100.00;98403.75;4151966;28;20038;-74
2023/10/18 08:44:21;;;;;;;5.07;1.10;;;18.60;99.90;;;18.15;100.00;98421.13;4168190;28;20034;-74
2023/10/18 08:46:27;;;;;;;4.90;1.00;;;18.60;99.90;;;18.17;100.00;98410.19;4151396;28;20032;-74
2023/10/18 08:48:28;;;;;;;8.93;1.15;;;18.70;99.90;;;18.21;100.00;98405.94;4151031;28;20441;-74
2023/10/18 08:50:32;;;;;;;9.93;1.35;;;18.70;99.90;;;18.25;100.00;98404.34;4150358;28;20485;-74
2023/10/18 08:52:39;;;;;;;8.07;1.75;;;18.70;99.90;;;18.29;100.00;98392.09;4150617;28;20108;-74
2023/10/18 08:54:41;;;;;;;10.63;1.40;;;18.70;99.90;;;18.28;100.00;98382.47;4140604;28;20034;-74
2023/10/18 08:56:42;;;;;;;9.80;1.65;;;18.80;99.90;;;18.29;100.00;98386.75;4134434;28;20022;-74
2023/10/18 08:58:47;;;;;;;8.82;1.52;;;18.80;99.90;;;18.31;100.00;98386.50;4134272;28;20069;-74
2023/10/18 09:02:57;;;;;;;9.75;1.70;;;18.80;99.90;;;18.31;100.00;98384.59;4135155;28;20031;-74
2023/10/18 09:04:59;;;;;;;10.38;1.85;;;18.80;99.90;;;18.32;100.00;98372.88;4151814;28;20026;-74
2023/10/18 09:07:17;;;;;;;8.45;1.50;;;18.80;99.90;;;18.32;100.00;98375.53;4134294;28;20062;-74
2023/10/18 09:09:18;;;;;;;5.85;1.38;;;18.80;99.90;;;18.34;100.00;98380.63;4136610;28;20532;-74
2023/10/18 09:11:22;;;;;;;6.90;1.33;;;18.80;99.90;;;18.35;100.00;98383.03;4150915;28;20050;-74